createdAt,value
2022-10-23T00:02:14.344Z,95820.34
2022-10-23T00:05:16.432Z,95826.00
2022-10-23T00:08:18.417Z,95822.63
2022-10-23T00:11:24.332Z,95811.38
2022-10-23T00:14:26.227Z,95807.94
2022-10-23T00:17:29.520Z,95808.16
2022-10-23T00:20:31.635Z,95819.63
2022-10-23T00:23:33.558Z,95823.16
2022-10-23T00:26:35.594Z,95816.44
2022-10-23T00:29:37.488Z,95812.88
2022-10-23T00:32:40.751Z,95813.44
2022-10-23T00:35:43.119Z,95808.94
2022-10-23T00:38:45.294Z,95804.53
2022-10-23T00:41:47.338Z,95796.44
2022-10-23T00:45:15.244Z,95801.84
2022-10-23T00:48:19.334Z,95804.47
2022-10-23T00:51:21.713Z,95808.91
2022-10-23T00:54:26.937Z,95805.56
2022-10-23T01:00:43.984Z,95796.38
2022-10-23T01:03:47.721Z,95794.81
2022-10-23T01:06:56.247Z,95789.03
2022-10-23T01:10:06.301Z,95790.94
2022-10-23T01:13:15.375Z,95791.44
2022-10-23T01:16:23.715Z,95789.25
2022-10-23T01:19:43.046Z,95792.38
2022-10-23T01:23:04.487Z,95799.34
2022-10-23T01:26:17.401Z,95789.81
2022-10-23T01:29:26.909Z,95787.13
2022-10-23T01:32:35.641Z,95782.13
2022-10-23T01:35:45.896Z,95776.63
2022-10-23T01:38:54.011Z,95776.34
2022-10-23T01:42:03.952Z,95770.50
2022-10-23T01:45:13.474Z,95768.94
2022-10-23T01:48:21.512Z,95771.69
2022-10-23T01:51:27.469Z,95762.88
2022-10-23T01:54:33.880Z,95764.25
2022-10-23T01:57:37.534Z,95756.88
2022-10-23T02:00:43.122Z,95756.75
2022-10-23T02:03:46.055Z,95762.19
2022-10-23T02:06:48.149Z,95764.16
2022-10-23T02:09:50.274Z,95755.69
2022-10-23T02:13:01.078Z,95765.88
2022-10-23T02:16:12.461Z,95762.84
2022-10-23T02:19:22.387Z,95747.16
2022-10-23T02:22:27.907Z,95751.44
2022-10-23T02:25:33.991Z,95741.13
2022-10-23T02:28:43.372Z,95734.13
2022-10-23T02:31:46.923Z,95731.34
2022-10-23T02:34:48.880Z,95729.03
2022-10-23T02:37:54.560Z,95728.72
2022-10-23T02:41:02.069Z,95729.03
2022-10-23T02:44:12.441Z,95728.66
2022-10-23T02:47:27.621Z,95731.06
2022-10-23T02:50:36.265Z,95727.22
2022-10-23T02:53:49.122Z,95736.09
2022-10-23T02:56:59.343Z,95727.59
2022-10-23T03:00:05.588Z,95728.69
2022-10-23T03:03:13.519Z,95726.81
2022-10-23T03:06:15.581Z,95729.91
2022-10-23T03:09:18.490Z,95730.66
2022-10-23T03:12:20.467Z,95724.41
2022-10-23T03:15:22.516Z,95723.16
2022-10-23T03:18:25.909Z,95722.81
2022-10-23T03:21:28.214Z,95719.72
2022-10-23T03:24:30.622Z,95718.59
2022-10-23T03:27:32.940Z,95717.41
2022-10-23T03:30:34.877Z,95724.22
2022-10-23T03:33:38.578Z,95718.72
2022-10-23T03:36:41.286Z,95715.28
2022-10-23T03:39:43.443Z,95713.78
2022-10-23T03:42:45.894Z,95710.19
2022-10-23T03:45:48.271Z,95707.19
2022-10-23T03:48:51.564Z,95708.75
2022-10-23T03:51:53.575Z,95717.16
2022-10-23T03:54:55.441Z,95709.41
2022-10-23T03:57:57.361Z,95707.88
2022-10-23T04:00:59.271Z,95708.59
2022-10-23T04:04:02.629Z,95707.13
2022-10-23T04:07:04.477Z,95707.88
2022-10-23T04:10:07.489Z,95716.72
2022-10-23T04:13:09.401Z,95717.16
2022-10-23T04:16:11.367Z,95707.00
2022-10-23T04:19:14.641Z,95719.31
2022-10-23T04:22:16.550Z,95720.09
2022-10-23T04:25:18.545Z,95722.03
2022-10-23T04:28:20.412Z,95718.63
2022-10-23T04:31:22.394Z,95713.22
2022-10-23T04:34:26.089Z,95714.69
2022-10-23T04:37:28.073Z,95714.75
2022-10-23T04:40:29.964Z,95700.84
2022-10-23T04:43:31.977Z,95704.66
2022-10-23T04:46:33.868Z,95711.41
2022-10-23T04:49:37.158Z,95709.63
2022-10-23T04:52:39.040Z,95701.47
2022-10-23T04:55:49.010Z,95703.41
2022-10-23T04:58:50.929Z,95703.41
2022-10-23T05:01:52.917Z,95697.22
2022-10-23T05:04:56.196Z,95700.69
2022-10-23T05:07:58.192Z,95698.41
2022-10-23T05:11:00.314Z,95693.03
2022-10-23T05:14:02.220Z,95691.91
2022-10-23T05:17:08.061Z,95694.16
2022-10-23T05:20:17.356Z,95689.56
2022-10-23T05:23:22.054Z,95698.00
2022-10-23T05:26:24.020Z,95696.00
2022-10-23T05:29:25.906Z,95694.09
2022-10-23T05:32:29.653Z,95689.47
2022-10-23T05:35:33.145Z,95675.56
2022-10-23T05:38:35.831Z,95678.69
2022-10-23T05:41:37.718Z,95680.50
2022-10-23T05:44:39.967Z,95679.00
2022-10-23T05:47:43.922Z,95696.00
2022-10-23T05:50:47.274Z,95695.53
2022-10-23T05:53:49.467Z,95696.66
2022-10-23T05:56:51.297Z,95693.97
2022-10-23T05:59:53.165Z,95688.16
2022-10-23T06:02:55.125Z,95693.97
2022-10-23T06:05:58.409Z,95689.63
2022-10-23T06:09:00.365Z,95692.31
2022-10-23T06:12:02.555Z,95690.44
2022-10-23T06:15:05.412Z,95688.94
2022-10-23T06:18:07.442Z,95695.09
2022-10-23T06:21:10.712Z,95690.13
2022-10-23T06:24:12.704Z,95690.56
2022-10-23T06:27:14.569Z,95687.94
2022-10-23T06:30:16.928Z,95690.66
2022-10-23T06:33:18.819Z,95691.47
2022-10-23T06:36:22.357Z,95688.06
2022-10-23T06:39:26.138Z,95689.28
2022-10-23T06:42:30.441Z,95687.22
2022-10-23T06:45:34.073Z,95689.13
2022-10-23T06:48:35.973Z,95683.81
2022-10-23T06:51:39.256Z,95688.44
2022-10-23T06:54:41.115Z,95695.00
2022-10-23T06:57:43.681Z,95693.91
2022-10-23T07:00:46.432Z,95694.75
2022-10-23T07:03:48.870Z,95692.44
2022-10-23T07:06:54.499Z,95694.78
2022-10-23T07:09:56.876Z,95692.81
2022-10-23T07:12:59.225Z,95688.66
2022-10-23T07:16:09.361Z,95693.72
2022-10-23T07:19:11.387Z,95696.09
2022-10-23T07:22:15.936Z,95687.66
2022-10-23T07:25:18.114Z,95684.16
2022-10-23T07:28:20.012Z,95682.28
2022-10-23T07:31:24.361Z,95670.00
2022-10-23T07:34:29.136Z,95673.88
2022-10-23T07:37:32.485Z,95680.88
2022-10-23T07:40:34.852Z,95680.97
2022-10-23T07:43:36.861Z,95688.31
2022-10-23T07:46:38.745Z,95685.31
2022-10-23T07:49:40.717Z,95683.44
2022-10-23T07:52:44.261Z,95680.81
2022-10-23T07:55:52.948Z,95683.16
2022-10-23T07:58:54.811Z,95677.34
2022-10-23T08:01:57.035Z,95679.38
2022-10-23T08:04:58.974Z,95686.72
2022-10-23T08:08:02.194Z,95685.56
2022-10-23T08:11:04.447Z,95689.91
2022-10-23T08:14:07.066Z,95678.00
2022-10-23T08:17:09.028Z,95675.69
2022-10-23T08:20:11.440Z,95671.03
2022-10-23T08:23:17.023Z,95671.09
2022-10-23T08:26:18.879Z,95665.00
2022-10-23T08:29:20.727Z,95665.81
2022-10-23T08:32:22.646Z,95663.13
2022-10-23T08:35:24.750Z,95664.75
2022-10-23T08:38:28.037Z,95664.75
2022-10-23T08:41:33.292Z,95662.47
2022-10-23T08:44:43.411Z,95666.72
2022-10-23T08:47:51.503Z,95668.31
2022-10-23T08:50:57.519Z,95670.28
2022-10-23T08:54:08.055Z,95660.34
2022-10-23T08:57:14.917Z,95659.56
2022-10-23T09:00:18.461Z,95662.69
2022-10-23T09:03:21.867Z,95663.94
2022-10-23T09:06:34.281Z,95678.53
2022-10-23T09:09:54.773Z,95678.22
2022-10-23T09:13:00.478Z,95683.34
2022-10-23T09:16:13.259Z,95675.59
2022-10-23T09:19:17.724Z,95671.75
2022-10-23T09:22:19.753Z,95664.06
2022-10-23T09:25:24.654Z,95663.28
2022-10-23T09:28:31.190Z,95668.69
2022-10-23T09:31:33.186Z,95663.34
2022-10-23T09:34:35.333Z,95664.16
2022-10-23T09:37:46.450Z,95658.38
2022-10-23T09:40:51.082Z,95659.91
2022-10-23T09:44:11.908Z,95644.47
2022-10-23T09:47:18.522Z,95644.50
2022-10-23T09:50:21.387Z,95644.53
2022-10-23T09:53:33.081Z,95644.91
2022-10-23T09:56:41.349Z,95656.91
2022-10-23T11:28:54.431Z,95546.38
2022-10-23T11:32:26.609Z,95538.94
2022-10-23T11:35:42.874Z,95524.06
2022-10-23T11:38:47.952Z,95534.09
2022-10-23T11:41:55.533Z,95523.56
2022-10-23T11:44:58.839Z,95519.38
2022-10-23T11:48:02.334Z,95512.19
2022-10-23T11:51:06.257Z,95513.63
2022-10-23T11:54:21.790Z,95511.19
2022-10-23T11:57:23.803Z,95498.25
2022-10-23T12:00:30.671Z,95496.63
2022-10-23T12:03:41.698Z,95495.00
2022-10-23T12:06:46.919Z,95496.44
2022-10-23T12:09:54.313Z,95502.56
2022-10-23T12:12:57.807Z,95487.34
2022-10-23T12:16:01.427Z,95487.16
2022-10-23T12:19:20.750Z,95479.06
2022-10-23T12:22:28.302Z,95470.47
2022-10-23T12:25:41.316Z,95465.84
2022-10-23T12:28:50.202Z,95463.59
2022-10-23T12:32:01.199Z,95463.25
2022-10-23T12:35:21.283Z,95461.34
2022-10-23T12:38:25.436Z,95441.56
2022-10-23T12:41:29.458Z,95444.09
2022-10-23T12:44:31.375Z,95444.84
2022-10-23T12:47:35.109Z,95441.81
2022-10-23T12:50:37.455Z,95434.47
2022-10-23T12:53:39.499Z,95430.94
2022-10-23T12:56:41.602Z,95441.00
2022-10-23T12:59:43.580Z,95431.38
2022-10-23T13:02:47.258Z,95430.84
2022-10-23T13:05:51.007Z,95429.53
2022-10-23T13:08:53.821Z,95433.31
2022-10-23T13:11:56.661Z,95435.25
2022-10-23T13:15:01.227Z,95435.03
2022-10-23T13:18:05.912Z,95443.84
2022-10-23T13:21:16.915Z,95439.22
2022-10-23T13:24:21.630Z,95433.84
2022-10-23T13:27:32.295Z,95431.22
2022-10-23T13:30:36.772Z,95427.78
2022-10-23T13:33:42.981Z,95426.06
2022-10-23T13:36:54.313Z,95418.88
2022-10-23T13:40:00.175Z,95417.41
2022-10-23T13:43:02.394Z,95407.63
2022-10-23T13:46:04.678Z,95417.72
2022-10-23T13:49:08.134Z,95411.72
2022-10-23T13:52:13.734Z,95407.81
2022-10-23T13:55:22.474Z,95412.63
2022-10-23T13:58:24.479Z,95412.91
2022-10-23T14:01:29.092Z,95413.19
2022-10-23T14:04:32.746Z,95418.94
2022-10-23T14:07:34.643Z,95422.41
2022-10-23T14:10:37.147Z,95414.47
2022-10-23T14:13:40.009Z,95415.41
2022-10-23T14:16:42.267Z,95417.59
2022-10-23T14:19:45.786Z,95407.47
2022-10-23T14:22:48.145Z,95413.97
2022-10-23T14:25:50.096Z,95412.91
2022-10-23T14:28:54.123Z,95407.25
2022-10-23T14:31:56.600Z,95401.09
2022-10-23T14:35:00.595Z,95406.47
2022-10-23T14:38:03.078Z,95405.78
2022-10-23T14:41:11.151Z,95408.38
2022-10-23T14:44:13.509Z,95409.75
2022-10-23T14:47:15.558Z,95407.34
2022-10-23T14:50:19.627Z,95411.38
2022-10-23T14:53:22.340Z,95409.31
2022-10-23T14:56:25.597Z,95408.25
2022-10-23T14:59:28.079Z,95413.13
2022-10-23T15:02:30.225Z,95412.31
2022-10-23T15:05:33.542Z,95412.28
2022-10-23T15:08:35.993Z,95403.75
2022-10-23T15:11:38.149Z,95410.91
2022-10-23T15:14:40.348Z,95415.28
2022-10-23T15:17:42.653Z,95413.22
2022-10-23T15:20:53.318Z,95408.81
2022-10-23T15:23:55.489Z,95406.38
2022-10-23T15:26:58.245Z,95392.84
2022-10-23T15:30:01.452Z,95384.31
2022-10-23T15:33:03.733Z,95390.88
2022-10-23T15:36:07.867Z,95392.84
2022-10-23T15:39:11.171Z,95393.25
2022-10-23T15:42:13.508Z,95385.78
2022-10-23T15:45:15.534Z,95390.59
2022-10-23T15:48:17.551Z,95382.91
2022-10-23T15:51:21.191Z,95381.38
2022-10-23T15:54:23.588Z,95385.28
2022-10-23T15:57:25.538Z,95391.59
2022-10-23T16:00:27.755Z,95384.75
2022-10-23T16:03:29.977Z,95388.66
2022-10-23T16:06:33.336Z,95386.81
2022-10-23T16:09:36.815Z,95372.50
2022-10-23T16:12:38.777Z,95375.66
2022-10-23T16:15:41.128Z,95372.28
2022-10-23T16:18:43.823Z,95376.56
2022-10-23T16:21:47.498Z,95381.66
2022-10-23T16:24:49.508Z,95376.28
2022-10-23T16:27:54.429Z,95379.75
2022-10-23T16:30:57.153Z,95379.50
2022-10-23T16:34:00.619Z,95382.66
2022-10-23T16:37:04.788Z,95377.03
2022-10-23T16:40:08.917Z,95384.44
2022-10-23T16:43:12.533Z,95385.69
2022-10-23T16:46:18.004Z,95380.00
2022-10-23T16:49:20.495Z,95381.94
2022-10-23T16:52:24.508Z,95387.41
2022-10-23T16:55:27.309Z,95392.94
2022-10-23T16:58:29.719Z,95391.53
2022-10-23T17:01:33.628Z,95397.72
2022-10-23T17:04:37.863Z,95404.75
2022-10-23T17:07:42.739Z,95410.19
2022-10-23T17:10:45.888Z,95410.31
2022-10-23T17:13:53.640Z,95424.31
2022-10-23T17:17:01.860Z,95421.25
2022-10-23T17:20:05.884Z,95428.25
2022-10-23T17:23:10.160Z,95426.44
2022-10-23T17:26:15.244Z,95425.28
2022-10-23T17:29:18.662Z,95416.38
2022-10-23T17:35:26.164Z,95411.78
2022-10-23T17:38:30.960Z,95396.84
2022-10-23T17:41:34.600Z,95398.81
2022-10-23T17:44:37.722Z,95388.78
2022-10-23T17:47:41.440Z,95393.13
2022-10-23T17:50:44.081Z,95397.13
2022-10-23T17:53:50.557Z,95405.66
2022-10-23T17:56:53.388Z,95409.13
2022-10-23T18:00:01.172Z,95405.59
2022-10-23T18:03:05.032Z,95404.44
2022-10-23T18:06:08.303Z,95406.84
2022-10-23T18:09:13.225Z,95402.25
2022-10-23T18:12:16.382Z,95400.31
2022-10-23T18:15:19.303Z,95390.22
2022-10-23T18:18:22.056Z,95381.66
2022-10-23T18:21:26.270Z,95380.97
2022-10-23T18:24:31.023Z,95375.97
2022-10-23T18:27:34.198Z,95382.56
2022-10-23T18:33:41.550Z,95378.69
2022-10-23T18:36:44.824Z,95381.03
2022-10-23T18:39:49.497Z,95379.94
2022-10-23T18:42:52.915Z,95381.53
2022-10-23T18:45:56.069Z,95379.19
2022-10-23T18:48:58.882Z,95382.69
2022-10-23T18:52:02.423Z,95376.97
2022-10-23T18:55:08.473Z,95375.41
2022-10-23T18:58:11.503Z,95373.03
2022-10-23T19:01:14.713Z,95375.06
2022-10-23T19:04:18.444Z,95378.63
2022-10-23T19:07:23.673Z,95375.47
2022-10-23T19:10:32.595Z,95372.34
2022-10-23T19:13:38.121Z,95366.28
2022-10-23T19:16:44.589Z,95360.44
2022-10-23T19:19:50.759Z,95355.47
2022-10-23T19:22:55.554Z,95354.28
2022-10-23T19:26:02.160Z,95357.38
2022-10-23T19:29:08.043Z,95352.72
2022-10-23T19:32:11.773Z,95357.41
2022-10-23T19:35:17.527Z,95364.41
2022-10-23T19:38:20.383Z,95364.44
2022-10-23T19:41:24.607Z,95366.78
2022-10-23T19:44:27.855Z,95359.81
2022-10-23T19:47:30.999Z,95360.22
2022-10-23T19:50:33.702Z,95361.44
2022-10-23T19:53:36.716Z,95368.41
2022-10-23T19:56:41.246Z,95367.63
2022-10-23T19:59:44.193Z,95368.00
2022-10-23T20:02:50.163Z,95366.47
2022-10-23T20:05:55.269Z,95361.84
2022-10-23T20:08:58.446Z,95350.28
2022-10-23T20:12:03.144Z,95357.75
2022-10-23T20:15:07.117Z,95353.03
2022-10-23T20:18:09.753Z,95365.00
2022-10-23T20:21:12.672Z,95361.13
2022-10-23T20:24:17.288Z,95360.34
2022-10-23T20:27:22.365Z,95360.78
2022-10-23T20:30:24.986Z,95359.25
2022-10-23T20:33:27.779Z,95357.75
2022-10-23T20:36:32.515Z,95355.03
2022-10-23T20:39:35.361Z,95365.06
2022-10-23T20:42:39.810Z,95361.59
2022-10-23T20:45:42.413Z,95370.91
2022-10-23T20:48:45.484Z,95374.00
2022-10-23T20:51:54.827Z,95376.31
2022-10-23T20:54:57.712Z,95368.56
2022-10-23T20:58:00.982Z,95372.81
2022-10-23T21:01:04.706Z,95377.09
2022-10-23T21:04:06.867Z,95374.38
2022-10-23T21:07:10.476Z,95367.84
2022-10-23T21:10:13.199Z,95370.53
2022-10-23T21:13:16.533Z,95378.69
2022-10-23T21:16:23.643Z,95377.53
2022-10-23T21:19:28.238Z,95378.31
2022-10-23T21:22:30.116Z,95377.13
2022-10-23T21:25:32.003Z,95376.34
2022-10-23T21:28:35.592Z,95371.38
2022-10-23T21:31:37.714Z,95362.47
2022-10-23T21:34:39.650Z,95366.72
2022-10-23T21:37:41.807Z,95370.56
2022-10-23T21:40:43.784Z,95374.91
2022-10-23T21:43:47.235Z,95364.81
2022-10-23T21:46:49.108Z,95374.13
2022-10-23T21:49:50.991Z,95372.59
2022-10-23T21:52:52.885Z,95372.22
2022-10-23T21:55:56.148Z,95360.97
2022-10-23T21:59:00.597Z,95367.91
2022-10-23T22:02:02.652Z,95376.06
2022-10-23T22:05:05.210Z,95386.13
2022-10-23T22:08:07.204Z,95388.47
2022-10-23T22:11:09.210Z,95395.81
2022-10-23T22:14:12.497Z,95394.66
2022-10-23T22:17:14.466Z,95392.72
2022-10-23T22:20:16.571Z,95406.25
2022-10-23T22:23:18.486Z,95399.34
2022-10-23T22:26:24.083Z,95408.63
2022-10-23T22:29:29.019Z,95410.94
2022-10-23T22:32:30.982Z,95406.69
2022-10-23T22:35:32.998Z,95414.41
2022-10-23T22:38:35.000Z,95407.88
2022-10-23T22:41:36.893Z,95405.59
2022-10-23T22:44:40.167Z,95405.59
2022-10-23T22:47:42.146Z,95412.94
2022-10-23T22:50:45.984Z,95412.94
2022-10-23T22:53:48.207Z,95420.31
2022-10-23T22:56:50.100Z,95432.28
2022-10-23T22:59:53.387Z,95433.44
2022-10-23T23:02:55.338Z,95434.97
2022-10-23T23:05:57.400Z,95433.81
2022-10-23T23:08:59.310Z,95445.78
2022-10-23T23:12:01.214Z,95455.84
2022-10-23T23:15:05.489Z,95451.22
2022-10-23T23:18:07.393Z,95456.22
2022-10-23T23:21:09.259Z,95448.47
2022-10-23T23:24:11.770Z,95451.19
2022-10-23T23:27:14.011Z,95507.66
2022-10-23T23:30:17.370Z,95515.38
2022-10-23T23:33:19.253Z,95511.91
2022-10-23T23:36:23.456Z,95523.50
2022-10-23T23:39:25.332Z,95530.47
2022-10-23T23:42:27.220Z,95529.69
2022-10-23T23:45:30.616Z,95537.41
2022-10-23T23:48:32.499Z,95541.63
2022-10-23T23:51:34.380Z,95544.28
2022-10-23T23:54:36.333Z,95538.84
2022-10-23T23:57:38.283Z,95561.28
